Hiyodori — JD2366 — position and weather

sailwx.info

Track history (hours):
 
Tides and Currents Weather Stations Pressure Air Temp Water Temp Dewpoint Dewpoint Depression Visibility Wind Speed Wind Dir Waves Ship Positions

Hiyodori

Last reported at 2015-Aug-31 17:26 UTC. Time now 2015-Aug-31 19:55 UTC.
Position N 35°02' E 138°31'.

Length 88 m; draft 3.6 m.

Type: Cargo ship. MMSI: 431000132.

Date/timePositionNaut miles runAvg speedWind from/ knotsBaromVisibWave heightAir tempDewpointWater temp
2015-Aug-31 17:26N 35°02' E 138°31'50 1.5
2015-Aug-30 07:26N 35°01' E 139°32'1112.1
2015-Aug-30 06:33N 35°08' E 139°42'1010.2
2015-Aug-30 05:33N 35°18' E 139°44'7 6.7
2015-Aug-30 04:33N 35°23' E 139°40'0 0.0
2015-Aug-30 03:33N 35°23' E 139°40'0 0.0
2015-Aug-30 02:33N 35°23' E 139°40'0 0.0
2015-Aug-30 01:33N 35°23' E 139°40'0 0.1
2015-Aug-30 00:33N 35°23' E 139°40'0 0.0
2015-Aug-29 23:33N 35°23' E 139°40'0 0.0
2015-Aug-29 22:33N 35°23' E 139°40'0 0.0
2015-Aug-29 21:33N 35°23' E 139°40'0 0.0
2015-Aug-29 20:33N 35°23' E 139°40'0 0.0
2015-Aug-29 19:33N 35°23' E 139°40'0 0.0
2015-Aug-29 18:33N 35°23' E 139°40'1 1.2
2015-Aug-29 17:33N 35°24' E 139°41'0 0.3
2015-Aug-29 16:33N 35°24' E 139°41'1 1.0
2015-Aug-29 15:33N 35°23' E 139°40'0 0.0
2015-Aug-29 14:33N 35°23' E 139°40'0 0.0
2015-Aug-29 13:33N 35°23' E 139°40'0 0.0
2015-Aug-29 12:33N 35°23' E 139°40'0 0.0
2015-Aug-29 11:33N 35°23' E 139°40'0 0.0
2015-Aug-29 10:33N 35°23' E 139°40'0 0.0
2015-Aug-29 09:33N 35°23' E 139°40'0 0.0
2015-Aug-29 08:33N 35°23' E 139°40'0 0.0
2015-Aug-29 07:33N 35°23' E 139°40'0 0.0
2015-Aug-29 06:33N 35°23' E 139°40'0 0.0
2015-Aug-29 05:33N 35°23' E 139°40'0 0.0
2015-Aug-29 04:33N 35°23' E 139°40'0 0.0
2015-Aug-29 03:33N 35°23' E 139°40'0 0.0
2015-Aug-29 02:33N 35°23' E 139°40'0 0.0
2015-Aug-29 01:33N 35°23' E 139°40'2 1.5
2015-Aug-29 00:33N 35°23' E 139°41'1110.6
2015-Aug-28 23:33N 35°13' E 139°47'  
2015-Aug-26 01:21N 35°02' E 138°30'44 2.8
2015-Aug-25 09:31N 34°58' E 139°24'1212.0
2015-Aug-25 08:33N 35°04' E 139°36'1212.2
2015-Aug-25 07:33N 35°13' E 139°46'1211.9
2015-Aug-25 06:34N 35°24' E 139°41'0 0.2
2015-Aug-25 05:33N 35°24' E 139°41'0 0.0
2015-Aug-25 04:33N 35°24' E 139°41'1 0.8
2015-Aug-25 03:33N 35°24' E 139°40'0 0.3
2015-Aug-25 02:33N 35°23' E 139°40'0 0.0
2015-Aug-25 01:33N 35°23' E 139°40'8 8.5
2015-Aug-25 00:33N 35°16' E 139°46'1211.6
2015-Aug-24 23:33N 35°05' E 139°43'1312.5
2015-Aug-24 22:32N 34°57' E 139°31'  
2015-Aug-22 05:32N 34°59' E 139°27'1111.0
2015-Aug-22 04:31N 35°05' E 139°39'1010.8
2015-Aug-22 03:33N 35°13' E 139°46'1111.4
2015-Aug-22 02:34N 35°24' E 139°41'0 0.4
2015-Aug-22 01:33N 35°24' E 139°41'0 0.0
2015-Aug-22 00:33N 35°24' E 139°41'1 1.1
2015-Aug-21 23:33N 35°23' E 139°40'0 0.0
2015-Aug-21 22:33N 35°23' E 139°40'0 0.1
2015-Aug-21 21:33N 35°23' E 139°40'8 8.2
2015-Aug-21 20:33N 35°17' E 139°46'1211.7
2015-Aug-21 19:33N 35°05' E 139°43'  
Track history (hours):
 
Tides and Currents Weather Stations Pressure Air Temp Water Temp Dewpoint Dewpoint Depression Visibility Wind Speed Wind Dir Waves Ship Positions

Hiyodori

Last reported at 2015-Aug-31 17:26 UTC. Time now 2015-Aug-31 19:55 UTC.
Position N 35°02' E 138°31'.

Length 88 m; draft 3.6 m.

Type: Cargo ship. MMSI: 431000132.

Date/timePositionNaut miles runAvg speedWind from/ knotsBaromVisibWave heightAir tempDewpointWater temp
2015-Aug-31 17:26N 35°02' E 138°31'50 1.5
2015-Aug-30 07:26N 35°01' E 139°32'1112.1
2015-Aug-30 06:33N 35°08' E 139°42'1010.2
2015-Aug-30 05:33N 35°18' E 139°44'7 6.7
2015-Aug-30 04:33N 35°23' E 139°40'0 0.0
2015-Aug-30 03:33N 35°23' E 139°40'0 0.0
2015-Aug-30 02:33N 35°23' E 139°40'0 0.0
2015-Aug-30 01:33N 35°23' E 139°40'0 0.1
2015-Aug-30 00:33N 35°23' E 139°40'0 0.0
2015-Aug-29 23:33N 35°23' E 139°40'0 0.0
2015-Aug-29 22:33N 35°23' E 139°40'0 0.0
2015-Aug-29 21:33N 35°23' E 139°40'0 0.0
2015-Aug-29 20:33N 35°23' E 139°40'0 0.0
2015-Aug-29 19:33N 35°23' E 139°40'0 0.0
2015-Aug-29 18:33N 35°23' E 139°40'1 1.2
2015-Aug-29 17:33N 35°24' E 139°41'0 0.3
2015-Aug-29 16:33N 35°24' E 139°41'1 1.0
2015-Aug-29 15:33N 35°23' E 139°40'0 0.0
2015-Aug-29 14:33N 35°23' E 139°40'0 0.0
2015-Aug-29 13:33N 35°23' E 139°40'0 0.0
2015-Aug-29 12:33N 35°23' E 139°40'0 0.0
2015-Aug-29 11:33N 35°23' E 139°40'0 0.0
2015-Aug-29 10:33N 35°23' E 139°40'0 0.0
2015-Aug-29 09:33N 35°23' E 139°40'0 0.0
2015-Aug-29 08:33N 35°23' E 139°40'0 0.0
2015-Aug-29 07:33N 35°23' E 139°40'0 0.0
2015-Aug-29 06:33N 35°23' E 139°40'0 0.0
2015-Aug-29 05:33N 35°23' E 139°40'0 0.0
2015-Aug-29 04:33N 35°23' E 139°40'0 0.0
2015-Aug-29 03:33N 35°23' E 139°40'0 0.0
2015-Aug-29 02:33N 35°23' E 139°40'0 0.0
2015-Aug-29 01:33N 35°23' E 139°40'2 1.5
2015-Aug-29 00:33N 35°23' E 139°41'1110.6
2015-Aug-28 23:33N 35°13' E 139°47'  
2015-Aug-26 01:21N 35°02' E 138°30'44 2.8
2015-Aug-25 09:31N 34°58' E 139°24'1212.0
2015-Aug-25 08:33N 35°04' E 139°36'1212.2
2015-Aug-25 07:33N 35°13' E 139°46'1211.9
2015-Aug-25 06:34N 35°24' E 139°41'0 0.2
2015-Aug-25 05:33N 35°24' E 139°41'0 0.0
2015-Aug-25 04:33N 35°24' E 139°41'1 0.8
2015-Aug-25 03:33N 35°24' E 139°40'0 0.3
2015-Aug-25 02:33N 35°23' E 139°40'0 0.0
2015-Aug-25 01:33N 35°23' E 139°40'8 8.5
2015-Aug-25 00:33N 35°16' E 139°46'1211.6
2015-Aug-24 23:33N 35°05' E 139°43'1312.5
2015-Aug-24 22:32N 34°57' E 139°31'  
2015-Aug-22 05:32N 34°59' E 139°27'1111.0
2015-Aug-22 04:31N 35°05' E 139°39'1010.8
2015-Aug-22 03:33N 35°13' E 139°46'1111.4
2015-Aug-22 02:34N 35°24' E 139°41'0 0.4
2015-Aug-22 01:33N 35°24' E 139°41'0 0.0
2015-Aug-22 00:33N 35°24' E 139°41'1 1.1
2015-Aug-21 23:33N 35°23' E 139°40'0 0.0
2015-Aug-21 22:33N 35°23' E 139°40'0 0.1
2015-Aug-21 21:33N 35°23' E 139°40'8 8.2
2015-Aug-21 20:33N 35°17' E 139°46'1211.7
2015-Aug-21 19:33N 35°05' E 139°43'  

Dump ship's entire track history